Kampville Court, Missouri
Current Conditions -  °F | °C
As of 9:54 AM on Wednesday 28 Jan 2015 (Local Time) from KSET Reporting Station
Clear Clear  
Wind Chill: 27°   Ceiling: Unl
Heat Index: 36°   Visibility: 10mi
Dew Point: 29°   Wind: 15mph
Humidity: 76%   Direction: 150°SSE
Pressure: 30.22"   Gusts: NA
Location:  38.8615°N, 90.4548°W
Report Text: KSET 281554Z AUTO 15013KT 10SM CLR 02/M02 A3022 RMK AO2 SLP236 T00221017
Loading
Personal Weather Stations






























Interactive Weather Map New forecast layout! Learn more

10-Day Weather Forecast

Advertisements
Track Severe Weather on mobile